createdAt,value
2018-09-10T00:00:33.887Z,2.47
2018-09-10T00:03:02.362Z,3.00
2018-09-10T00:05:30.847Z,3.10
2018-09-10T00:07:59.633Z,3.30
2018-09-10T00:10:28.105Z,2.80
2018-09-10T00:12:56.568Z,3.00
2018-09-10T00:15:25.076Z,3.27
2018-09-10T00:17:53.608Z,2.87
2018-09-10T00:20:22.091Z,2.80
2018-09-10T00:22:50.569Z,3.23
2018-09-10T00:25:19.039Z,3.00
2018-09-10T00:27:47.922Z,3.00
2018-09-10T00:30:16.370Z,3.13
2018-09-10T00:32:44.822Z,3.17
2018-09-10T00:35:13.330Z,3.00
2018-09-10T00:37:41.794Z,3.40
2018-09-10T00:40:10.316Z,2.63
2018-09-10T00:42:38.749Z,3.13
2018-09-10T00:45:07.489Z,2.97
2018-09-10T00:47:35.965Z,2.83
2018-09-10T00:50:04.538Z,3.00
2018-09-10T00:52:33.018Z,2.97
2018-09-10T00:55:01.568Z,3.20
2018-09-10T00:57:30.019Z,3.43
2018-09-10T00:59:58.482Z,3.30
2018-09-10T01:02:26.938Z,3.67
2018-09-10T01:04:55.430Z,3.20
2018-09-10T01:07:23.914Z,3.20
2018-09-10T01:09:52.369Z,3.30
2018-09-10T01:12:20.847Z,2.80
2018-09-10T01:14:49.351Z,3.07
2018-09-10T01:17:17.797Z,2.83
2018-09-10T01:19:46.320Z,2.87
2018-09-10T01:22:14.766Z,3.33
2018-09-10T01:24:43.223Z,3.20
2018-09-10T01:27:11.632Z,3.00
2018-09-10T01:29:40.118Z,3.23
2018-09-10T01:32:08.565Z,3.53
2018-09-10T01:34:42.326Z,3.50
2018-09-10T01:37:10.757Z,3.30
2018-09-10T01:39:39.233Z,3.53
2018-09-10T01:42:07.666Z,3.50
2018-09-10T01:44:36.123Z,3.60
2018-09-10T01:47:04.649Z,3.60
2018-09-10T01:49:33.297Z,3.83
2018-09-10T01:52:01.714Z,3.60
2018-09-10T01:54:30.161Z,4.03
2018-09-10T01:56:58.574Z,3.90
2018-09-10T01:59:27.040Z,4.00
2018-09-10T02:01:55.502Z,4.20
2018-09-10T02:04:23.968Z,3.90
2018-09-10T02:06:52.406Z,4.17
2018-09-10T02:09:20.931Z,3.83
2018-09-10T02:11:49.342Z,4.40
2018-09-10T02:14:17.777Z,3.87
2018-09-10T02:16:46.195Z,3.53
2018-09-10T02:19:14.689Z,3.43
2018-09-10T02:21:43.109Z,3.47
2018-09-10T02:24:11.577Z,3.00
2018-09-10T02:26:40.025Z,3.03
2018-09-10T02:29:08.492Z,3.30
2018-09-10T02:31:36.953Z,3.30
2018-09-10T02:34:05.530Z,2.80
2018-09-10T02:36:34.007Z,3.27
2018-09-10T02:39:02.456Z,2.87
2018-09-10T02:41:30.856Z,3.00
2018-09-10T02:43:59.308Z,3.70
2018-09-10T02:46:27.726Z,3.07
2018-09-10T02:48:56.168Z,3.20
2018-09-10T02:51:24.605Z,2.93
2018-09-10T02:53:53.134Z,3.43
2018-09-10T02:56:21.556Z,3.40
2018-09-10T02:58:50.035Z,3.20
2018-09-10T03:01:18.458Z,3.30
2018-09-10T03:03:46.914Z,3.20
2018-09-10T03:06:15.359Z,3.50
2018-09-10T03:08:43.800Z,3.90
2018-09-10T03:11:12.213Z,3.17
2018-09-10T03:13:40.664Z,3.23
2018-09-10T03:16:09.080Z,3.67
2018-09-10T03:18:37.555Z,5.47
2018-09-10T03:21:05.999Z,4.23
2018-09-10T03:23:34.505Z,4.33
2018-09-10T03:26:02.986Z,4.30
2018-09-10T03:28:31.449Z,4.00
2018-09-10T03:30:59.957Z,3.33
2018-09-10T03:33:28.401Z,3.70
2018-09-10T03:35:56.834Z,4.27
2018-09-10T03:38:25.314Z,4.03
2018-09-10T03:40:53.744Z,3.93
2018-09-10T03:43:22.205Z,4.23
2018-09-10T03:45:51.025Z,4.20
2018-09-10T03:48:19.486Z,4.40
2018-09-10T03:50:47.910Z,4.27
2018-09-10T03:53:16.369Z,4.23
2018-09-10T03:55:44.845Z,4.37
2018-09-10T03:58:13.297Z,3.47
2018-09-10T04:00:41.702Z,4.77
2018-09-10T04:03:10.189Z,4.00
2018-09-10T04:05:38.616Z,4.37
2018-09-10T04:08:07.104Z,4.77
2018-09-10T04:10:35.555Z,4.07
2018-09-10T04:13:04.148Z,4.20
2018-09-10T04:15:32.586Z,4.23
2018-09-10T04:18:01.020Z,4.10
2018-09-10T04:20:29.473Z,3.70
2018-09-10T04:22:57.928Z,4.27
2018-09-10T04:25:26.328Z,4.70
2018-09-10T04:27:54.764Z,4.80
2018-09-10T04:30:23.171Z,4.20
2018-09-10T04:32:51.624Z,4.27
2018-09-10T04:35:20.019Z,3.47
2018-09-10T04:37:48.573Z,3.80
2018-09-10T04:40:17.029Z,4.03
2018-09-10T04:42:45.491Z,3.80
2018-09-10T04:45:13.955Z,3.80
2018-09-10T04:47:42.409Z,3.97
2018-09-10T04:50:10.906Z,4.10
2018-09-10T04:52:39.392Z,4.23
2018-09-10T04:55:07.845Z,4.37
2018-09-10T04:57:36.281Z,4.10
2018-09-10T05:00:05.624Z,4.30
2018-09-10T05:02:34.236Z,3.77
2018-09-10T05:05:02.667Z,4.07
2018-09-10T05:07:31.071Z,4.30
2018-09-10T05:09:59.669Z,3.83
2018-09-10T05:12:28.039Z,3.90
2018-09-10T05:14:56.487Z,4.07
2018-09-10T05:17:24.893Z,4.57
2018-09-10T05:19:53.360Z,4.10
2018-09-10T05:22:21.772Z,4.20
2018-09-10T05:24:50.213Z,4.23
2018-09-10T05:27:18.601Z,4.40
2018-09-10T05:29:47.046Z,4.33
2018-09-10T05:32:15.433Z,3.73
2018-09-10T05:34:43.861Z,4.73
2018-09-10T05:37:12.257Z,4.50
2018-09-10T05:39:40.677Z,4.00
2018-09-10T05:42:09.153Z,5.07
2018-09-10T05:44:37.681Z,4.80
2018-09-10T05:47:06.061Z,4.47
2018-09-10T05:49:34.494Z,4.23
2018-09-10T05:52:02.892Z,4.07
2018-09-10T05:54:31.329Z,4.20
2018-09-10T05:56:59.730Z,4.53
2018-09-10T05:59:28.179Z,4.70
2018-09-10T06:01:56.593Z,4.77
2018-09-10T06:04:25.051Z,4.63
2018-09-10T06:06:53.457Z,4.00
2018-09-10T06:09:21.904Z,4.53
2018-09-10T06:11:50.304Z,4.40
2018-09-10T06:14:18.738Z,4.03
2018-09-10T06:16:47.224Z,4.57
2018-09-10T06:19:15.605Z,4.00
2018-09-10T06:21:44.028Z,3.87
2018-09-10T06:24:12.469Z,4.13
2018-09-10T06:26:40.880Z,3.43
2018-09-10T06:29:09.344Z,3.97
2018-09-10T06:31:37.769Z,3.80
2018-09-10T06:34:06.293Z,3.80
2018-09-10T06:36:34.677Z,3.90
2018-09-10T06:39:03.421Z,3.27
2018-09-10T06:41:31.813Z,3.30
2018-09-10T06:44:00.246Z,3.90
2018-09-10T06:46:28.677Z,3.13
2018-09-10T06:48:57.095Z,3.20
2018-09-10T06:51:25.503Z,3.30
2018-09-10T06:53:53.939Z,2.93
2018-09-10T06:56:22.347Z,3.30
2018-09-10T06:58:50.804Z,3.27
2018-09-10T07:01:19.209Z,3.00
2018-09-10T07:03:47.673Z,3.00
2018-09-10T07:06:16.161Z,2.70
2018-09-10T07:08:44.562Z,3.10
2018-09-10T07:11:12.961Z,2.60
2018-09-10T07:13:41.402Z,2.93
2018-09-10T07:16:09.820Z,2.30
2018-09-10T07:18:38.312Z,2.73
2018-09-10T07:21:06.766Z,3.03
2018-09-10T07:23:35.394Z,2.70
2018-09-10T07:26:03.856Z,2.20
2018-09-10T07:28:32.281Z,2.37
2018-09-10T07:31:00.800Z,2.83
2018-09-10T07:33:29.306Z,2.50
2018-09-10T07:35:57.782Z,2.43
2018-09-10T07:38:26.242Z,2.20
2018-09-10T07:40:54.686Z,2.57
2018-09-10T07:43:23.175Z,2.20
2018-09-10T07:45:51.639Z,2.37
2018-09-10T07:48:20.240Z,2.20
2018-09-10T07:50:48.715Z,2.53
2018-09-10T07:53:17.175Z,2.60
2018-09-10T07:55:45.698Z,1.90
2018-09-10T07:58:14.173Z,2.00
2018-09-10T08:00:42.702Z,1.90
2018-09-10T08:03:11.164Z,2.10
2018-09-10T08:05:39.639Z,1.70
2018-09-10T08:08:08.093Z,1.87
2018-09-10T08:10:36.631Z,2.00
2018-09-10T08:13:05.076Z,1.80
2018-09-10T08:15:33.574Z,1.90
2018-09-10T08:18:02.035Z,1.90
2018-09-10T08:20:30.712Z,1.90
2018-09-10T08:22:59.170Z,1.80
2018-09-10T08:25:27.664Z,1.70
2018-09-10T08:27:56.120Z,1.70
2018-09-10T08:30:24.603Z,1.90
2018-09-10T08:32:53.094Z,1.50
2018-09-10T08:35:21.642Z,1.80
2018-09-10T08:37:50.134Z,1.60
2018-09-10T08:40:18.629Z,1.77
2018-09-10T08:42:47.132Z,1.50
2018-09-10T08:45:15.574Z,1.40
2018-09-10T08:47:44.079Z,1.43
2018-09-10T08:50:12.542Z,1.37
2018-09-10T08:52:41.023Z,1.17
2018-09-10T08:55:09.613Z,1.30
2018-09-10T08:57:38.036Z,1.50
2018-09-10T09:00:06.559Z,1.20
2018-09-10T09:02:35.295Z,1.10
2018-09-10T09:05:03.775Z,1.50
2018-09-10T09:07:32.317Z,1.23
2018-09-10T09:10:00.923Z,1.30
2018-09-10T09:12:29.416Z,1.53
2018-09-10T09:14:57.855Z,1.40
2018-09-10T09:17:26.364Z,1.20
2018-09-10T09:19:54.814Z,1.23
2018-09-10T09:22:23.320Z,1.10
2018-09-10T09:24:51.934Z,1.20
2018-09-10T09:27:20.695Z,1.13
2018-09-10T09:29:49.179Z,1.10
2018-09-10T09:32:17.658Z,1.22
2018-09-10T09:34:51.527Z,1.10
2018-09-10T09:37:25.308Z,1.10
2018-09-10T09:39:59.104Z,1.17
2018-09-10T09:42:32.899Z,1.07
2018-09-10T09:45:06.647Z,1.25
2018-09-10T09:47:35.123Z,1.00
2018-09-10T09:50:03.593Z,1.10
2018-09-10T09:52:32.216Z,0.72
2018-09-10T09:55:01.077Z,1.47
2018-09-10T09:57:29.569Z,1.10
2018-09-10T09:59:58.024Z,0.90
2018-09-10T10:02:31.779Z,0.80
2018-09-10T10:05:00.215Z,1.00
2018-09-10T10:07:28.687Z,0.88
2018-09-10T10:09:57.118Z,1.05
2018-09-10T10:12:25.703Z,0.90
2018-09-10T10:14:54.035Z,1.00
2018-09-10T10:17:22.524Z,1.00
2018-09-10T10:19:52.031Z,1.10
2018-09-10T10:22:21.059Z,0.98
2018-09-10T10:24:49.529Z,0.90
2018-09-10T10:27:17.975Z,0.93
2018-09-10T10:29:46.449Z,1.20
2018-09-10T10:32:14.878Z,1.10
2018-09-10T10:34:43.360Z,1.10
2018-09-10T10:37:11.969Z,1.00
2018-09-10T10:39:40.417Z,0.98
2018-09-10T10:42:08.858Z,1.05
2018-09-10T10:44:37.347Z,0.88
2018-09-10T10:47:06.035Z,1.00
2018-09-10T10:49:34.501Z,0.93
2018-09-10T10:52:03.045Z,1.12
2018-09-10T10:54:31.524Z,0.98
2018-09-10T10:56:59.953Z,1.00
2018-09-10T10:59:28.459Z,1.07
2018-09-10T11:01:56.955Z,1.00
2018-09-10T11:04:25.437Z,1.00
2018-09-10T11:06:53.912Z,0.88
2018-09-10T11:09:22.374Z,1.20
2018-09-10T11:11:50.837Z,1.00
2018-09-10T11:14:19.291Z,1.10
2018-09-10T11:16:47.773Z,1.30
2018-09-10T11:19:16.256Z,1.00
2018-09-10T11:21:44.703Z,1.17
2018-09-10T11:24:13.174Z,1.10
2018-09-10T11:26:41.640Z,1.10
2018-09-10T11:29:10.122Z,0.95
2018-09-10T11:31:38.559Z,1.00
2018-09-10T11:34:07.076Z,1.40
2018-09-10T11:36:35.524Z,1.10
2018-09-10T11:39:04.759Z,1.37
2018-09-10T11:41:33.186Z,1.20
2018-09-10T11:44:01.660Z,1.25
2018-09-10T11:46:30.148Z,1.30
2018-09-10T11:48:58.614Z,1.47
2018-09-10T11:51:27.029Z,1.10
2018-09-10T11:53:55.488Z,1.37
2018-09-10T11:56:23.922Z,1.40
2018-09-10T11:58:52.410Z,1.37
2018-09-10T12:01:20.848Z,1.20
2018-09-10T12:03:49.327Z,1.00
2018-09-10T12:06:17.794Z,1.10
2018-09-10T12:08:46.286Z,1.20
2018-09-10T12:11:14.701Z,1.07
2018-09-10T12:13:43.193Z,1.02
2018-09-10T12:16:11.651Z,1.00
2018-09-10T12:18:40.267Z,1.20
2018-09-10T12:21:08.729Z,0.90
2018-09-10T12:23:37.171Z,1.10
2018-09-10T12:26:05.879Z,1.20
2018-09-10T12:28:37.990Z,1.02
2018-09-10T12:31:06.715Z,1.10
2018-09-10T12:33:35.156Z,1.05
2018-09-10T12:36:03.662Z,1.10
2018-09-10T12:38:32.115Z,1.20
2018-09-10T12:41:00.579Z,1.02
2018-09-10T12:43:29.048Z,1.10
2018-09-10T12:45:57.497Z,0.98
2018-09-10T12:48:25.992Z,1.12
2018-09-10T12:50:54.486Z,1.20
2018-09-10T12:53:23.846Z,1.12
2018-09-10T12:55:52.325Z,1.20
2018-09-10T12:58:20.832Z,1.32
2018-09-10T13:00:49.327Z,1.37
2018-09-10T13:03:17.792Z,1.12
2018-09-10T13:05:46.281Z,1.45
2018-09-10T13:08:14.779Z,1.45
2018-09-10T13:10:43.295Z,1.30
2018-09-10T13:13:11.723Z,1.20
2018-09-10T13:15:40.220Z,1.20
2018-09-10T13:18:08.707Z,1.20
2018-09-10T13:20:37.190Z,1.65
2018-09-10T13:23:05.698Z,1.35
2018-09-10T13:25:34.185Z,1.30
2018-09-10T13:28:02.663Z,1.47
2018-09-10T13:30:31.171Z,1.25
2018-09-10T13:32:59.663Z,1.45
2018-09-10T13:35:28.114Z,1.65
2018-09-10T13:37:56.628Z,1.30
2018-09-10T13:40:25.079Z,1.52
2018-09-10T13:42:53.576Z,1.70
2018-09-10T13:45:22.010Z,1.40
2018-09-10T13:47:50.548Z,4.50
2018-09-10T13:50:19.037Z,2.72
2018-09-10T13:52:47.481Z,1.92
2018-09-10T13:55:15.973Z,1.60
2018-09-10T13:57:44.408Z,1.65
2018-09-10T14:00:12.891Z,1.52
2018-09-10T14:02:41.525Z,1.55
2018-09-10T14:05:10.207Z,1.70
2018-09-10T14:07:38.642Z,1.47
2018-09-10T14:10:07.135Z,1.45
2018-09-10T14:12:35.585Z,1.55
2018-09-10T14:15:04.100Z,1.62
2018-09-10T14:17:32.565Z,1.67
2018-09-10T14:20:01.056Z,1.60
2018-09-10T14:22:29.515Z,1.75
2018-09-10T14:24:58.007Z,1.45
2018-09-10T14:27:26.548Z,1.57
2018-09-10T14:29:54.976Z,1.80
2018-09-10T14:32:23.435Z,1.40
2018-09-10T14:34:51.900Z,1.90
2018-09-10T14:37:20.402Z,1.85
2018-09-10T14:39:48.893Z,1.72
2018-09-10T14:42:17.367Z,1.70
2018-09-10T14:44:45.915Z,1.80
2018-09-10T14:47:14.360Z,1.75
2018-09-10T14:49:42.857Z,1.60
2018-09-10T14:52:11.368Z,1.70
2018-09-10T14:54:39.864Z,2.02
2018-09-10T14:57:08.297Z,1.87
2018-09-10T14:59:36.766Z,1.80
2018-09-10T15:02:05.257Z,1.80
2018-09-10T15:04:33.740Z,1.87
2018-09-10T15:07:02.218Z,2.10
2018-09-10T15:09:30.718Z,1.62
2018-09-10T15:11:59.207Z,1.82
2018-09-10T15:14:27.665Z,1.75
2018-09-10T15:16:56.129Z,1.77
2018-09-10T15:19:24.625Z,2.08
2018-09-10T15:21:53.046Z,1.67
2018-09-10T15:24:21.543Z,1.75
2018-09-10T15:26:49.986Z,1.60
2018-09-10T15:29:18.464Z,1.70
2018-09-10T15:31:46.911Z,1.60
2018-09-10T15:34:15.373Z,1.80
2018-09-10T15:36:43.819Z,1.67
2018-09-10T15:39:12.298Z,1.60
2018-09-10T15:41:40.786Z,1.40
2018-09-10T15:44:09.399Z,1.40
2018-09-10T15:46:37.895Z,1.52
2018-09-10T15:49:06.426Z,1.85
2018-09-10T15:51:34.890Z,1.42
2018-09-10T15:54:03.406Z,2.22
2018-09-10T15:56:37.605Z,1.80
2018-09-10T15:59:06.186Z,1.92
2018-09-10T16:01:34.635Z,1.80
2018-09-10T16:04:03.715Z,1.62
2018-09-10T16:06:32.864Z,1.62
2018-09-10T16:09:01.367Z,1.80
2018-09-10T16:11:29.818Z,1.57
2018-09-10T16:13:58.315Z,1.80
2018-09-10T16:16:26.753Z,1.77
2018-09-10T16:18:56.130Z,1.67
2018-09-10T16:21:24.698Z,1.70
2018-09-10T16:23:53.190Z,1.90
2018-09-10T16:26:21.671Z,1.45
2018-09-10T16:28:50.254Z,1.60
2018-09-10T16:31:18.784Z,1.47
2018-09-10T16:33:47.251Z,1.70
2018-09-10T16:36:15.835Z,1.30
2018-09-10T16:38:44.301Z,1.67
2018-09-10T16:41:12.818Z,1.70
2018-09-10T16:43:41.288Z,1.57
2018-09-10T16:46:09.897Z,1.77
2018-09-10T16:48:38.478Z,1.60
2018-09-10T16:51:06.979Z,1.90
2018-09-10T16:53:35.483Z,1.55
2018-09-10T16:56:04.647Z,1.77
2018-09-10T16:58:33.203Z,1.37
2018-09-10T17:01:01.808Z,1.57
2018-09-10T17:03:30.408Z,1.60
2018-09-10T17:05:58.890Z,1.62
2018-09-10T17:08:27.371Z,1.90
2018-09-10T17:10:55.861Z,1.70
2018-09-10T17:13:24.326Z,1.40
2018-09-10T17:15:53.012Z,1.82
2018-09-10T17:18:21.564Z,1.87
2018-09-10T17:20:50.167Z,1.70
2018-09-10T17:23:18.732Z,2.00
2018-09-10T17:25:50.597Z,1.82
2018-09-10T17:28:19.918Z,2.00
2018-09-10T17:30:48.543Z,1.50
2018-09-10T17:33:18.084Z,1.67
2018-09-10T17:35:46.619Z,1.85
2018-09-10T17:38:15.279Z,2.27
2018-09-10T17:40:43.896Z,2.10
2018-09-10T17:43:12.362Z,2.05
2018-09-10T17:45:40.904Z,1.92
2018-09-10T17:48:09.862Z,1.90
2018-09-10T17:50:38.757Z,2.67
2018-09-10T17:53:07.413Z,2.00
2018-09-10T17:55:35.876Z,2.70
2018-09-10T17:58:04.407Z,3.10
2018-09-10T18:00:33.047Z,2.60
2018-09-10T18:03:01.447Z,2.00
2018-09-10T18:05:29.907Z,2.43
2018-09-10T18:07:58.342Z,2.30
2018-09-10T18:10:26.788Z,2.20
2018-09-10T18:12:55.227Z,2.40
2018-09-10T18:15:23.653Z,2.47
2018-09-10T18:17:52.161Z,2.17
2018-09-10T18:20:20.639Z,2.30
2018-09-10T18:22:49.156Z,2.07
2018-09-10T18:25:17.636Z,2.20
2018-09-10T18:27:46.158Z,2.30
2018-09-10T18:30:14.621Z,1.80
2018-09-10T18:32:43.114Z,2.20
2018-09-10T18:35:11.586Z,2.00
2018-09-10T18:37:40.462Z,1.77
2018-09-10T18:40:09.019Z,2.20
2018-09-10T18:42:37.587Z,2.20
2018-09-10T18:45:06.281Z,1.90
2018-09-10T18:47:34.908Z,2.33
2018-09-10T18:50:03.426Z,3.50
2018-09-10T18:52:31.993Z,2.37
2018-09-10T18:55:00.753Z,2.67
2018-09-10T18:57:29.289Z,2.30
2018-09-10T18:59:58.110Z,2.20
2018-09-10T19:02:26.636Z,2.50
2018-09-10T19:04:55.126Z,2.27
2018-09-10T19:07:23.604Z,2.20
2018-09-10T19:09:52.153Z,2.00
2018-09-10T19:12:20.584Z,2.50
2018-09-10T19:14:49.137Z,2.63
2018-09-10T19:17:17.687Z,2.47
2018-09-10T19:19:46.524Z,2.70
2018-09-10T19:22:15.316Z,2.17
2018-09-10T19:24:43.817Z,2.30
2018-09-10T19:27:12.353Z,2.50
2018-09-10T19:29:40.850Z,2.70
2018-09-10T19:32:09.379Z,2.87
2018-09-10T19:34:37.826Z,2.50
2018-09-10T19:37:06.373Z,2.67
2018-09-10T19:39:34.948Z,2.60
2018-09-10T19:42:03.454Z,2.33
2018-09-10T19:44:31.960Z,2.53
2018-09-10T19:47:00.539Z,2.60
2018-09-10T19:49:29.033Z,2.47
2018-09-10T19:51:57.530Z,2.50
2018-09-10T19:54:26.069Z,3.20
2018-09-10T19:56:54.590Z,3.00
2018-09-10T19:59:23.107Z,2.53
2018-09-10T20:01:51.610Z,2.60
2018-09-10T20:04:20.090Z,2.77
2018-09-10T20:06:48.797Z,2.60
2018-09-10T20:09:17.264Z,2.53
2018-09-10T20:11:45.805Z,2.93
2018-09-10T20:14:14.281Z,2.60
2018-09-10T20:16:42.867Z,2.60
2018-09-10T20:19:11.393Z,2.30
2018-09-10T20:21:39.882Z,2.30
2018-09-10T20:24:08.350Z,2.87
2018-09-10T20:26:37.049Z,3.03
2018-09-10T20:29:05.559Z,2.70
2018-09-10T20:31:34.042Z,2.90
2018-09-10T20:34:07.614Z,2.43
2018-09-10T20:36:37.206Z,2.20
2018-09-10T20:39:08.170Z,2.70
2018-09-10T20:41:36.709Z,2.80
2018-09-10T20:44:05.197Z,2.73
2018-09-10T20:46:33.690Z,2.40
2018-09-10T20:49:02.182Z,2.50
2018-09-10T20:51:30.678Z,2.33
2018-09-10T20:53:59.153Z,2.40
2018-09-10T20:56:27.648Z,2.60
2018-09-10T20:58:56.136Z,2.83
2018-09-10T21:01:24.635Z,2.57
2018-09-10T21:03:53.162Z,2.80
2018-09-10T21:06:21.702Z,2.73
2018-09-10T21:08:50.161Z,2.60
2018-09-10T21:11:18.659Z,2.90
2018-09-10T21:13:47.108Z,2.40
2018-09-10T21:16:15.610Z,2.97
2018-09-10T21:18:44.124Z,3.00
2018-09-10T21:21:12.607Z,3.57
2018-09-10T21:23:41.060Z,3.30
2018-09-10T21:26:09.531Z,2.70
2018-09-10T21:28:37.984Z,2.87
2018-09-10T21:31:06.627Z,2.83
2018-09-10T21:33:35.102Z,3.33
2018-09-10T21:36:03.613Z,3.10
2018-09-10T21:38:32.083Z,2.50
2018-09-10T21:41:00.596Z,3.07
2018-09-10T21:43:29.108Z,2.83
2018-09-10T21:45:57.628Z,3.07
2018-09-10T21:48:26.190Z,2.90
2018-09-10T21:50:54.715Z,2.87
2018-09-10T21:53:23.189Z,2.97
2018-09-10T21:55:51.677Z,3.30
2018-09-10T21:58:20.138Z,3.10
2018-09-10T22:00:53.690Z,3.80
2018-09-10T22:03:22.188Z,2.47
2018-09-10T22:05:50.794Z,2.40
2018-09-10T22:08:19.276Z,2.77
2018-09-10T22:10:47.826Z,2.80
2018-09-10T22:13:16.332Z,2.70
2018-09-10T22:15:44.844Z,3.00
2018-09-10T22:18:13.873Z,2.83
2018-09-10T22:20:42.724Z,3.03
2018-09-10T22:23:11.185Z,3.20
2018-09-10T22:25:39.867Z,3.07
2018-09-10T22:28:08.493Z,3.40
2018-09-10T22:30:37.386Z,3.00
2018-09-10T22:33:06.736Z,3.83
2018-09-10T22:35:35.203Z,3.10
2018-09-10T22:38:03.727Z,2.50
2018-09-10T22:40:32.209Z,3.70
2018-09-10T22:43:00.704Z,3.63
2018-09-10T22:45:29.344Z,2.87
2018-09-10T22:47:57.840Z,3.47
2018-09-10T22:50:26.295Z,2.87
2018-09-10T22:52:54.761Z,3.43
2018-09-10T22:55:23.210Z,2.73
2018-09-10T22:57:51.689Z,3.00
2018-09-10T23:00:20.139Z,2.97
2018-09-10T23:02:48.656Z,3.20
2018-09-10T23:05:17.126Z,3.43
2018-09-10T23:07:45.596Z,3.07
2018-09-10T23:10:14.042Z,3.33
2018-09-10T23:12:42.511Z,3.30
2018-09-10T23:15:10.986Z,3.20
2018-09-10T23:17:39.515Z,3.03
2018-09-10T23:20:08.142Z,2.90
2018-09-10T23:22:36.625Z,3.07
2018-09-10T23:25:05.115Z,2.90
2018-09-10T23:27:33.608Z,3.03
2018-09-10T23:30:02.099Z,3.27
2018-09-10T23:32:30.525Z,3.07
2018-09-10T23:34:58.986Z,2.93
2018-09-10T23:37:27.463Z,2.97
2018-09-10T23:39:55.906Z,3.67
2018-09-10T23:42:24.806Z,3.33
2018-09-10T23:44:53.247Z,3.10
2018-09-10T23:47:21.695Z,3.10
2018-09-10T23:49:50.192Z,3.03
2018-09-10T23:52:18.641Z,3.50
2018-09-10T23:54:47.152Z,3.50
2018-09-10T23:57:15.642Z,3.43
2018-09-10T23:59:44.118Z,3.00
